createdAt,value
2023-05-15T00:01:29.731Z,83.96
2023-05-15T00:04:38.289Z,83.56
2023-05-15T00:07:46.966Z,83.86
2023-05-15T00:13:58.155Z,83.31
2023-05-15T00:17:07.267Z,83.51
2023-05-15T00:20:16.821Z,83.21
2023-05-15T00:23:26.623Z,82.90
2023-05-15T00:26:35.927Z,82.50
2023-05-15T00:29:44.590Z,82.29
2023-05-15T00:32:54.645Z,82.19
2023-05-15T00:36:03.553Z,82.40
2023-05-15T00:39:08.486Z,82.60
2023-05-15T00:42:18.378Z,82.64
2023-05-15T00:45:27.439Z,82.84
2023-05-15T00:48:35.550Z,83.35
2023-05-15T00:51:46.011Z,84.55
2023-05-15T00:54:56.517Z,85.71
2023-05-15T00:58:05.068Z,86.43
2023-05-15T01:01:14.266Z,86.53
2023-05-15T01:04:13.970Z,86.12
2023-05-15T01:07:22.417Z,85.71
2023-05-15T01:10:30.960Z,85.41
2023-05-15T01:13:33.625Z,85.45
2023-05-15T01:16:43.046Z,86.16
2023-05-15T01:19:51.616Z,86.36
2023-05-15T01:23:02.010Z,86.91
2023-05-15T01:26:08.005Z,87.12
2023-05-15T01:29:17.855Z,87.57
2023-05-15T01:32:26.834Z,87.98
2023-05-15T01:35:36.320Z,87.77
2023-05-15T01:38:46.394Z,87.57
2023-05-15T01:41:55.287Z,87.37
2023-05-15T01:45:03.808Z,86.91
2023-05-15T01:48:14.407Z,86.82
2023-05-15T01:51:23.513Z,86.51
2023-05-15T01:54:32.421Z,86.44
2023-05-15T01:57:42.372Z,86.44
2023-05-15T02:00:51.305Z,86.76
2023-05-15T02:03:59.419Z,86.76
2023-05-15T02:07:09.869Z,86.35
2023-05-15T02:10:19.121Z,86.18
2023-05-15T02:13:28.065Z,87.10
2023-05-15T02:16:37.207Z,87.20
2023-05-15T02:19:47.303Z,86.79
2023-05-15T02:22:56.419Z,86.59
2023-05-15T02:26:04.506Z,86.90
2023-05-15T02:29:14.741Z,86.38
2023-05-15T02:30:41.383Z,86.38
2023-05-15T02:33:49.999Z,86.32
2023-05-15T02:36:59.306Z,86.94
2023-05-15T02:40:09.019Z,87.14
2023-05-15T02:43:17.977Z,87.14
2023-05-15T02:46:26.135Z,86.83
2023-05-15T02:49:36.661Z,86.98
2023-05-15T02:52:45.024Z,86.88
2023-05-15T02:55:53.787Z,87.49
2023-05-15T02:59:03.715Z,88.04
2023-05-15T03:02:12.726Z,88.76
2023-05-15T03:05:20.818Z,88.80
2023-05-15T03:08:21.457Z,89.31
2023-05-15T03:11:30.222Z,89.72
2023-05-15T03:14:39.378Z,90.13
2023-05-15T03:17:48.740Z,90.17
2023-05-15T03:20:58.773Z,90.48
2023-05-15T03:24:07.536Z,90.37
2023-05-15T03:27:16.041Z,90.34
2023-05-15T03:30:26.902Z,90.34
2023-05-15T03:33:34.962Z,89.83
2023-05-15T03:36:44.309Z,89.83
2023-05-15T03:39:55.010Z,90.13
2023-05-15T03:43:03.479Z,90.69
2023-05-15T03:46:12.830Z,90.75
2023-05-15T03:49:23.179Z,90.84
2023-05-15T03:52:32.490Z,91.46
2023-05-15T03:55:41.480Z,91.46
2023-05-15T03:56:57.233Z,91.05
2023-05-15T04:00:07.120Z,90.09
2023-05-15T04:03:16.387Z,89.37
2023-05-15T04:06:25.165Z,89.12
2023-05-15T04:09:24.832Z,88.82
2023-05-15T04:12:33.891Z,88.37
2023-05-15T04:15:43.044Z,88.06
2023-05-15T04:18:51.743Z,87.65
2023-05-15T04:22:01.297Z,87.35
2023-05-15T04:25:10.472Z,87.35
2023-05-15T04:28:19.315Z,87.55
2023-05-15T04:31:30.034Z,87.14
2023-05-15T04:34:38.298Z,87.85
2023-05-15T04:37:47.560Z,88.68
2023-05-15T04:40:58.114Z,88.98
2023-05-15T04:44:07.087Z,89.50
2023-05-15T04:47:15.896Z,90.00
2023-05-15T04:50:26.514Z,90.31
2023-05-15T04:53:35.113Z,90.17
2023-05-15T04:56:44.133Z,89.45
2023-05-15T04:59:52.702Z,89.45
2023-05-15T05:03:03.630Z,89.11
2023-05-15T05:06:03.534Z,89.25
2023-05-15T05:09:12.057Z,89.41
2023-05-15T05:12:23.339Z,89.51
2023-05-15T05:15:31.844Z,89.26
2023-05-15T05:18:41.103Z,88.76
2023-05-15T05:21:51.143Z,88.10
2023-05-15T05:24:59.913Z,87.55
2023-05-15T05:28:09.893Z,86.94
2023-05-15T05:31:19.372Z,87.24
2023-05-15T05:34:28.506Z,87.55
2023-05-15T05:37:40.247Z,87.61
2023-05-15T05:40:40.373Z,86.59
2023-05-15T05:43:49.381Z,85.94
2023-05-15T05:46:57.930Z,85.08
2023-05-15T05:50:06.684Z,85.25
2023-05-15T05:53:16.641Z,84.59
2023-05-15T05:56:26.266Z,83.03
2023-05-15T05:59:34.532Z,82.12
2023-05-15T06:02:45.282Z,82.18
2023-05-15T06:05:53.565Z,81.98
2023-05-15T06:09:01.945Z,81.67
2023-05-15T06:12:12.088Z,81.63
2023-05-15T06:15:20.877Z,81.12
2023-05-15T06:18:32.142Z,81.29
2023-05-15T06:21:31.958Z,80.64
2023-05-15T06:24:40.719Z,79.90
2023-05-15T06:27:49.155Z,78.94
2023-05-15T06:30:57.865Z,78.50
2023-05-15T06:34:08.184Z,77.38
2023-05-15T06:37:16.815Z,77.99
2023-05-15T06:40:25.546Z,76.67
2023-05-15T06:41:19.678Z,76.06
2023-05-15T06:44:29.201Z,75.82
2023-05-15T06:47:38.124Z,75.12
2023-05-15T06:50:46.573Z,74.30
2023-05-15T06:53:57.162Z,74.57
2023-05-15T06:57:05.445Z,73.83
2023-05-15T07:00:14.127Z,73.69
2023-05-15T07:03:24.535Z,71.84
2023-05-15T07:06:34.189Z,71.40
2023-05-15T07:09:42.296Z,69.85
2023-05-15T07:12:53.128Z,69.07
2023-05-15T07:16:02.206Z,69.55
2023-05-15T07:19:10.652Z,70.62
2023-05-15T07:22:21.508Z,68.47
2023-05-15T07:25:30.349Z,67.53
2023-05-15T07:28:39.789Z,67.70
2023-05-15T07:31:47.876Z,66.16
2023-05-15T07:34:57.872Z,65.65
2023-05-15T07:38:06.321Z,66.42
2023-05-15T07:41:15.550Z,65.12
2023-05-15T07:44:26.275Z,65.82
2023-05-15T07:47:34.601Z,65.59
2023-05-15T07:50:43.660Z,64.45
2023-05-15T07:53:54.099Z,64.52
2023-05-15T07:57:02.100Z,63.89
2023-05-15T08:00:11.305Z,62.78
2023-05-15T08:03:11.153Z,62.85
2023-05-15T08:06:19.593Z,63.45
2023-05-15T08:09:28.720Z,63.22
2023-05-15T08:12:36.713Z,62.19
2023-05-15T08:15:47.034Z,61.18
2023-05-15T08:18:55.898Z,61.41
2023-05-15T08:22:05.319Z,61.65
2023-05-15T08:25:05.641Z,62.72
2023-05-15T08:27:04.545Z,62.62
2023-05-15T08:30:14.780Z,62.82
2023-05-15T08:33:24.967Z,64.13
2023-05-15T08:36:37.775Z,64.43
2023-05-15T08:39:35.938Z,64.46
2023-05-15T08:42:44.981Z,64.19
2023-05-15T08:45:55.615Z,65.16
2023-05-15T08:49:03.680Z,63.76
2023-05-15T08:52:12.726Z,64.83
2023-05-15T08:55:23.341Z,62.89
2023-05-15T08:58:31.446Z,62.08
2023-05-15T09:01:40.728Z,60.18
2023-05-15T09:04:50.593Z,56.63
2023-05-15T09:07:59.036Z,58.94
2023-05-15T09:11:07.978Z,58.54
2023-05-15T09:14:18.411Z,58.01
2023-05-15T09:17:28.011Z,58.51
2023-05-15T09:21:15.308Z,58.29
2023-05-15T09:24:16.571Z,58.39
2023-05-15T09:27:25.255Z,57.28
2023-05-15T09:30:33.994Z,57.06
2023-05-15T09:33:43.792Z,54.43
2023-05-15T09:36:53.435Z,53.22
2023-05-15T09:40:01.969Z,52.49
2023-05-15T09:43:10.731Z,50.99
2023-05-15T09:46:21.198Z,52.29
2023-05-15T09:49:32.032Z,50.89
2023-05-15T09:52:31.393Z,49.87
2023-05-15T09:55:41.282Z,49.34
2023-05-15T09:58:50.240Z,50.44
2023-05-15T10:01:58.781Z,52.02
2023-05-15T10:05:08.897Z,49.99
2023-05-15T10:08:17.982Z,50.70
2023-05-15T10:11:27.288Z,49.07
2023-05-15T10:14:35.413Z,48.77
2023-05-15T10:17:46.328Z,49.27
2023-05-15T10:20:55.163Z,49.15
2023-05-15T10:24:03.425Z,49.17
2023-05-15T10:27:13.545Z,49.57
2023-05-15T10:30:22.355Z,48.39
2023-05-15T10:33:30.873Z,49.94
2023-05-15T10:36:40.630Z,51.04
2023-05-15T10:39:49.466Z,49.34
2023-05-15T10:42:57.956Z,49.52
2023-05-15T10:46:07.821Z,49.91
2023-05-15T10:49:17.034Z,49.09
2023-05-15T10:52:25.481Z,47.89
2023-05-15T10:55:35.685Z,47.07
2023-05-15T10:58:44.255Z,48.27
2023-05-15T11:01:53.384Z,48.17
2023-05-15T11:05:02.222Z,47.97
2023-05-15T11:08:12.969Z,46.87
2023-05-15T11:11:21.961Z,51.79
2023-05-15T11:14:31.262Z,61.32
2023-05-15T11:17:30.997Z,65.99
2023-05-15T11:20:39.640Z,74.21
2023-05-15T11:23:48.132Z,79.19
2023-05-15T11:27:00.277Z,87.78
2023-05-15T11:30:08.945Z,92.42
2023-05-15T11:33:56.202Z,92.97
2023-05-15T11:36:56.303Z,94.84
2023-05-15T11:40:04.573Z,94.84
2023-05-15T11:43:13.878Z,85.92
2023-05-15T11:46:24.719Z,89.17
2023-05-15T11:49:33.566Z,85.74
2023-05-15T11:52:42.680Z,74.19
2023-05-15T11:55:51.415Z,70.83
2023-05-15T11:59:01.461Z,69.55
2023-05-15T12:02:10.379Z,75.17
2023-05-15T12:05:19.172Z,77.23
2023-05-15T12:08:30.085Z,77.91
2023-05-15T12:11:38.185Z,81.45
2023-05-15T12:14:47.782Z,79.33
2023-05-15T12:17:58.303Z,79.39
2023-05-15T12:21:06.726Z,80.46
2023-05-15T12:24:15.824Z,82.65
2023-05-15T12:25:09.714Z,83.72
2023-05-15T12:28:20.094Z,79.24
2023-05-15T12:31:29.338Z,79.97
2023-05-15T12:34:38.303Z,80.64
2023-05-15T12:37:48.208Z,82.01
2023-05-15T12:40:56.798Z,77.44
2023-05-15T12:44:06.026Z,74.38
2023-05-15T12:47:14.035Z,74.15
2023-05-15T12:50:24.533Z,75.29
2023-05-15T12:53:34.401Z,74.04
2023-05-15T12:56:42.820Z,72.10
2023-05-15T12:59:52.689Z,76.68
2023-05-15T13:03:01.810Z,72.06
2023-05-15T13:06:10.984Z,75.45
2023-05-15T13:09:20.393Z,71.33
2023-05-15T13:12:29.229Z,73.20
2023-05-15T13:15:38.358Z,72.60
2023-05-15T13:18:38.178Z,71.66
2023-05-15T13:21:47.127Z,72.36
2023-05-15T13:24:55.708Z,70.46
2023-05-15T13:28:04.540Z,71.77
2023-05-15T13:31:15.390Z,69.96
2023-05-15T13:34:25.105Z,66.32
2023-05-15T13:37:34.215Z,65.22
2023-05-15T13:40:45.201Z,65.12
2023-05-15T13:43:53.775Z,64.28
2023-05-15T13:47:02.784Z,62.88
2023-05-15T13:50:50.995Z,63.98
2023-05-15T13:53:59.870Z,61.65
2023-05-15T13:57:08.703Z,60.35
2023-05-15T14:00:08.407Z,56.92
2023-05-15T14:03:17.562Z,58.29
2023-05-15T14:06:25.449Z,55.29
2023-05-15T14:09:36.294Z,52.57
2023-05-15T14:12:44.992Z,51.15
2023-05-15T14:15:53.533Z,49.22
2023-05-15T14:19:02.362Z,49.85
2023-05-15T14:22:01.959Z,52.84
2023-05-15T14:25:10.517Z,50.39
2023-05-15T14:28:19.574Z,52.72
2023-05-15T14:31:30.168Z,49.72
2023-05-15T14:34:38.732Z,52.52
2023-05-15T14:37:47.183Z,53.55
2023-05-15T14:40:57.590Z,55.52
2023-05-15T14:44:05.626Z,53.49
2023-05-15T14:47:14.669Z,52.07
2023-05-15T14:50:15.172Z,51.97
2023-05-15T14:53:23.819Z,51.47
2023-05-15T14:56:33.644Z,50.09
2023-05-15T14:59:41.978Z,51.67
2023-05-15T15:02:51.902Z,50.70
2023-05-15T15:06:00.523Z,53.55
2023-05-15T15:09:08.520Z,51.67
2023-05-15T15:12:18.118Z,53.80
2023-05-15T15:15:26.952Z,53.42
2023-05-15T15:18:35.395Z,53.64
2023-05-15T15:21:45.792Z,54.97
2023-05-15T15:24:55.364Z,54.50
2023-05-15T15:28:04.567Z,55.93
2023-05-15T15:31:13.972Z,56.96
2023-05-15T15:34:23.153Z,57.79
2023-05-15T15:37:31.501Z,57.32
2023-05-15T15:40:41.858Z,57.92
2023-05-15T15:43:50.587Z,59.13
2023-05-15T15:47:37.206Z,58.42
2023-05-15T15:50:46.774Z,58.93
2023-05-15T15:53:56.594Z,59.23
2023-05-15T15:57:05.099Z,60.13
2023-05-15T16:00:13.373Z,60.41
2023-05-15T16:03:23.943Z,59.50
2023-05-15T16:06:32.538Z,58.70
2023-05-15T16:09:40.736Z,57.90
2023-05-15T16:12:51.153Z,56.99
2023-05-15T16:15:59.831Z,57.59
2023-05-15T16:19:08.164Z,56.79
2023-05-15T16:22:18.040Z,56.59
2023-05-15T16:25:26.588Z,56.79
2023-05-15T16:28:34.771Z,56.19
2023-05-15T16:31:43.910Z,56.89
2023-05-15T16:34:52.925Z,57.82
2023-05-15T16:38:01.080Z,57.62
2023-05-15T16:41:10.183Z,58.73
2023-05-15T16:44:20.324Z,59.94
2023-05-15T16:47:29.010Z,60.87
2023-05-15T16:50:38.185Z,61.77
2023-05-15T16:53:38.260Z,61.47
2023-05-15T16:56:46.173Z,61.17
2023-05-15T16:59:54.976Z,62.18
2023-05-15T17:03:04.916Z,61.37
2023-05-15T17:06:13.361Z,61.37
2023-05-15T17:09:22.112Z,60.36
2023-05-15T17:12:31.551Z,60.74
2023-05-15T17:15:39.881Z,59.74
2023-05-15T17:18:49.099Z,60.64
2023-05-15T17:21:57.288Z,59.33
2023-05-15T17:25:06.762Z,58.53
2023-05-15T17:28:15.418Z,59.36
2023-05-15T17:31:23.511Z,60.27
2023-05-15T17:34:33.152Z,59.96
2023-05-15T17:37:41.862Z,59.69
2023-05-15T17:40:50.542Z,60.19
2023-05-15T17:44:00.512Z,60.89
2023-05-15T17:47:08.916Z,59.59
2023-05-15T17:50:17.122Z,60.80
2023-05-15T17:53:27.413Z,61.30
2023-05-15T17:56:36.159Z,61.30
2023-05-15T17:59:44.198Z,62.24
2023-05-15T18:02:54.345Z,62.66
2023-05-15T18:06:02.222Z,63.27
2023-05-15T18:09:10.426Z,64.31
2023-05-15T18:12:18.552Z,65.42
2023-05-15T18:15:29.228Z,65.45
2023-05-15T18:18:38.164Z,66.29
2023-05-15T18:21:46.594Z,67.19
2023-05-15T18:24:56.098Z,67.83
2023-05-15T18:28:06.076Z,67.83
2023-05-15T18:31:14.539Z,68.77
2023-05-15T18:34:24.586Z,69.08
2023-05-15T18:37:32.813Z,69.48
2023-05-15T18:40:41.526Z,69.71
2023-05-15T18:43:51.505Z,70.12
2023-05-15T18:47:00.809Z,70.02
2023-05-15T18:50:09.773Z,70.32
2023-05-15T18:53:18.538Z,71.03
2023-05-15T18:56:27.661Z,71.13
2023-05-15T18:59:36.423Z,71.53
2023-05-15T19:02:46.375Z,71.57
2023-05-15T19:05:45.293Z,72.28
2023-05-15T19:08:54.111Z,72.38
2023-05-15T19:12:02.688Z,72.51
2023-05-15T19:15:11.962Z,72.92
2023-05-15T19:18:21.698Z,72.21
2023-05-15T19:21:31.130Z,72.41
2023-05-15T19:24:40.902Z,71.33
2023-05-15T19:27:49.190Z,70.39
2023-05-15T19:30:57.808Z,69.48
2023-05-15T19:34:06.741Z,68.57
2023-05-15T19:37:16.304Z,68.37
2023-05-15T19:40:24.813Z,67.86
2023-05-15T19:43:32.988Z,67.66
2023-05-15T19:46:43.016Z,67.25
2023-05-15T19:49:52.386Z,67.35
2023-05-15T19:53:01.150Z,67.66
2023-05-15T19:56:11.020Z,67.89
2023-05-15T19:59:19.889Z,66.98
2023-05-15T20:02:28.742Z,67.39
2023-05-15T20:05:38.079Z,67.89
2023-05-15T20:08:47.192Z,68.63
2023-05-15T20:11:55.421Z,68.73
2023-05-15T20:15:05.104Z,69.04
2023-05-15T20:18:13.025Z,69.98
2023-05-15T20:21:21.779Z,70.49
2023-05-15T20:24:30.891Z,70.69
2023-05-15T20:27:41.137Z,71.00
2023-05-15T20:30:49.380Z,71.33
2023-05-15T20:33:58.716Z,71.53
2023-05-15T20:37:07.939Z,71.53
2023-05-15T20:40:16.813Z,72.17
2023-05-15T20:43:24.798Z,72.38
2023-05-15T20:46:35.842Z,72.82
2023-05-15T20:49:43.974Z,73.46
2023-05-15T20:52:52.343Z,73.77
2023-05-15T20:56:02.541Z,73.90
2023-05-15T20:59:10.840Z,74.31
2023-05-15T21:02:19.466Z,74.75
2023-05-15T21:05:28.054Z,74.95
2023-05-15T21:08:38.514Z,75.09
2023-05-15T21:11:47.141Z,75.33
2023-05-15T21:14:54.970Z,75.84
2023-05-15T21:18:04.994Z,76.38
2023-05-15T21:21:13.876Z,77.09
2023-05-15T21:24:22.167Z,77.74
2023-05-15T21:27:33.153Z,77.94
2023-05-15T21:30:41.412Z,78.25
2023-05-15T21:33:50.574Z,78.86
2023-05-15T21:37:00.313Z,79.61
2023-05-15T21:40:08.796Z,80.22
2023-05-15T21:43:17.424Z,80.97
2023-05-15T21:46:26.727Z,81.68
2023-05-15T21:49:35.476Z,82.33
2023-05-15T21:52:44.233Z,82.84
2023-05-15T21:55:52.630Z,83.49
2023-05-15T21:59:02.746Z,83.90
2023-05-15T22:02:11.056Z,84.04
2023-05-15T22:05:20.253Z,84.45
2023-05-15T22:08:29.713Z,85.00
2023-05-15T22:11:38.801Z,85.21
2023-05-15T22:14:58.429Z,85.41
2023-05-15T22:17:54.339Z,85.65
2023-05-15T22:21:02.829Z,86.00
2023-05-15T22:24:11.426Z,86.10
2023-05-15T22:27:21.116Z,86.61
2023-05-15T22:30:29.790Z,87.16
2023-05-15T22:33:38.668Z,87.51
2023-05-15T22:36:47.004Z,87.92
2023-05-15T22:39:57.178Z,88.37
2023-05-15T22:43:06.375Z,88.68
2023-05-15T22:46:14.689Z,89.09
2023-05-15T22:49:24.650Z,88.92
2023-05-15T22:52:33.513Z,88.62
2023-05-15T22:55:41.686Z,88.88
2023-05-15T22:58:51.834Z,88.78
2023-05-15T23:02:00.137Z,88.17
2023-05-15T23:05:08.481Z,87.85
2023-05-15T23:08:17.973Z,87.24
2023-05-15T23:11:26.652Z,87.04
2023-05-15T23:14:35.181Z,86.98
2023-05-15T23:17:44.997Z,86.67
2023-05-15T23:20:53.559Z,86.67
2023-05-15T23:24:01.836Z,86.57
2023-05-15T23:27:10.137Z,86.77
2023-05-15T23:30:19.905Z,86.36
2023-05-15T23:33:28.320Z,86.16
2023-05-15T23:36:36.564Z,86.05
2023-05-15T23:39:46.705Z,85.55
2023-05-15T23:42:54.616Z,85.34
2023-05-15T23:46:02.870Z,85.24
2023-05-15T23:49:13.044Z,85.24
2023-05-15T23:52:21.049Z,85.34
2023-05-15T23:55:29.688Z,85.44
2023-05-15T23:58:39.888Z,85.24
